Time;durP1;ratioP1;P1;durP2;ratioP2;P2;SDS_P1;SDS_P2;PMS_P1;PMS_P2;Temp;Humidity;BMP_temperature;BMP_pressure;BME280_temperature;BME280_humidity;BME280_pressure;Samples;Min_cycle;Max_cycle;Signal;HPM_P1;HPM_P2
2022/12/01 00:02:01;;;;;;;1.27;0.77;;;;;;;7.14;100.00;99403.59;5027471;28;20688;-75
2022/12/01 00:04:31;;;;;;;3.22;0.95;;;;;;;7.15;100.00;99407.06;5018098;28;20447;-72
2022/12/01 00:07:00;;;;;;;1.58;1.05;;;;;;;7.14;100.00;99410.47;5029911;28;20045;-74
2022/12/01 00:12:14;;;;;;;2.45;1.48;;;;;;;7.19;100.00;99414.00;5027034;28;20056;-72
2022/12/01 00:14:42;;;;;;;1.25;1.15;;;;;;;7.14;100.00;99403.59;5030257;28;20037;-74
2022/12/01 00:17:11;;;;;;;5.75;1.33;;;;;;;7.03;100.00;99397.41;5026570;28;20041;-72
2022/12/01 00:19:42;;;;;;;1.70;0.90;;;;;;;7.09;100.00;99407.78;5023171;28;20046;-77
2022/12/01 00:22:10;;;;;;;4.28;1.40;;;;;;;7.08;100.00;99400.06;5029749;28;20089;-76
2022/12/01 00:24:39;;;;;;;1.70;1.23;;;;;;;7.08;100.00;99411.22;5031283;28;20041;-73
2022/12/01 00:27:08;;;;;;;2.33;1.08;;;;;;;7.06;100.00;99402.59;5026846;28;20049;-79
2022/12/01 00:29:36;;;;;;;3.65;1.20;;;;;;;7.03;100.00;99399.97;5032868;28;20655;-73
2022/12/01 00:32:05;;;;;;;2.75;1.70;;;;;;;7.12;100.00;99412.13;5031417;28;20049;-74
2022/12/01 00:34:34;;;;;;;2.92;1.45;;;;;;;7.13;100.00;99404.47;5028728;28;20054;-74
2022/12/01 00:37:04;;;;;;;2.92;1.40;;;;;;;7.13;100.00;99409.59;5028894;28;20514;-72
2022/12/01 00:39:33;;;;;;;2.10;1.27;;;;;;;7.09;100.00;99391.50;5025331;28;20491;-72
2022/12/01 00:42:01;;;;;;;2.80;1.17;;;;;;;7.09;100.00;99400.06;5031003;28;20057;-72
2022/12/01 00:44:30;;;;;;;1.38;0.88;;;;;;;7.07;100.00;99408.59;5034666;28;20049;-74
2022/12/01 00:46:59;;;;;;;2.42;1.20;;;;;;;7.06;100.00;99432.59;5030545;28;20064;-74
2022/12/01 00:49:28;;;;;;;1.55;1.00;;;;;;;7.04;100.00;99437.69;5028759;28;20038;-78
2022/12/01 00:51:56;;;;;;;1.45;0.85;;;;;;;7.04;100.00;99434.25;5035190;28;20556;-73
2022/12/01 00:54:30;;;;;;;1.88;1.00;;;;;;;6.97;100.00;99433.25;5036124;28;20801;-72
2022/12/01 00:56:59;;;;;;;4.63;1.33;;;;;;;6.95;100.00;99436.63;5028420;28;20073;-71
2022/12/01 00:59:28;;;;;;;4.03;1.30;;;;;;;6.95;100.00;99418.63;5031763;28;20069;-74
2022/12/01 01:01:57;;;;;;;3.65;1.20;;;;;;;6.93;100.00;99432.31;5032436;28;20048;-75
2022/12/01 01:04:26;;;;;;;4.82;1.05;;;;;;;6.89;100.00;99429.63;5026064;28;20069;-74
2022/12/01 01:06:54;;;;;;;6.47;1.85;;;;;;;6.83;100.00;99422.66;5023711;28;20042;-74
2022/12/01 01:09:23;;;;;;;6.85;1.30;;;;;;;6.76;100.00;99423.34;5030320;28;20132;-73
2022/12/01 01:11:54;;;;;;;1.75;0.80;;;;;;;6.70;100.00;99429.19;5026019;28;20041;-73
2022/12/01 01:14:23;;;;;;;4.20;1.10;;;;;;;6.65;100.00;99419.66;5027053;28;20041;-77
2022/12/01 01:16:52;;;;;;;4.03;1.10;;;;;;;6.57;100.00;99416.88;5028602;28;20044;-83
2022/12/01 01:19:21;;;;;;;1.70;1.02;;;;;;;6.55;100.00;99425.38;5030371;28;20089;-83
2022/12/01 01:21:50;;;;;;;2.85;1.08;;;;;;;6.48;100.00;99427.81;5028637;28;20049;-83
2022/12/01 01:24:19;;;;;;;1.05;0.73;;;;;;;6.47;100.00;99428.63;5033862;28;20045;-80
2022/12/01 01:26:48;;;;;;;4.65;1.23;;;;;;;6.46;100.00;99431.19;5021973;28;20065;-82
2022/12/01 01:29:18;;;;;;;0.80;0.70;;;;;;;6.42;100.00;99427.66;5027747;28;20057;-76
2022/12/01 01:31:47;;;;;;;1.38;0.90;;;;;;;6.40;100.00;99424.19;5027666;28;20057;-83
2022/12/01 01:34:16;;;;;;;2.47;0.88;;;;;;;6.36;100.00;99416.38;5014787;28;20422;-83
2022/12/01 01:36:44;;;;;;;1.05;0.70;;;;;;;6.35;100.00;99419.78;5019848;28;20128;-79
2022/12/01 01:39:13;;;;;;;2.45;1.08;;;;;;;6.35;100.00;99415.50;5027450;28;20068;-82
2022/12/01 01:41:42;;;;;;;1.17;0.80;;;;;;;6.37;100.00;99419.00;5028299;28;20072;-79
2022/12/01 01:44:46;;;;;;;1.45;0.90;;;;;;;6.36;100.00;99429.22;5026728;28;20042;-81
2022/12/01 01:47:19;;;;;;;0.65;0.52;;;;;;;6.33;100.00;99432.56;5023926;28;20054;-80
2022/12/01 01:49:51;;;;;;;1.02;0.60;;;;;;;6.33;100.00;99432.56;5027053;28;20058;-82
2022/12/01 01:52:21;;;;;;;4.22;0.95;;;;;;;6.28;100.00;99429.03;5032596;28;20064;-80
2022/12/01 01:54:52;;;;;;;1.13;0.43;;;;;;;6.24;100.00;99428.06;5028168;28;20054;-78
2022/12/01 01:57:27;;;;;;;6.72;0.88;;;;;;;6.24;100.00;99429.78;5030716;28;20141;-78
2022/12/01 02:00:02;;;;;;;0.95;0.70;;;;;;;6.24;100.00;99433.22;5028683;28;20061;-80
2022/12/01 02:02:33;;;;;;;1.20;0.50;;;;;;;6.21;100.00;99432.28;5030645;28;20076;-77
2022/12/01 02:05:03;;;;;;;3.63;0.50;;;;;;;6.14;100.00;99427.78;5023782;28;20041;-78
2022/12/01 02:07:32;;;;;;;5.15;0.80;;;;;;;6.07;100.00;99437.06;5027064;28;20064;-78
2022/12/01 02:10:00;;;;;;;3.72;1.05;;;;;;;6.02;100.00;99434.34;5024199;28;20302;-80
2022/12/01 02:12:57;;;;;;;2.58;0.70;;;;;;;6.00;100.00;99428.31;5029070;28;20053;-79
2022/12/01 02:15:34;;;;;;;2.08;0.57;;;;;;;5.98;100.00;99435.09;5022086;28;20132;-80
2022/12/01 02:18:22;;;;;;;1.05;0.50;;;;;;;5.98;100.00;99434.22;5027611;28;20053;-79
2022/12/01 02:21:24;;;;;;;2.30;0.65;;;;;;;6.01;100.00;99435.19;5021346;28;20056;-80
2022/12/01 02:24:26;;;;;;;1.17;0.50;;;;;;;6.07;100.00;99434.50;5026697;28;20046;-84
2022/12/01 02:27:02;;;;;;;0.90;0.30;;;;;;;6.09;100.00;99440.50;5023203;28;20046;-78
2022/12/01 02:30:06;;;;;;;1.38;0.55;;;;;;;6.12;100.00;99438.03;5024940;28;20119;-79
2022/12/01 02:32:46;;;;;;;1.65;0.40;;;;;;;6.13;100.00;99436.34;5022181;28;20053;-79
2022/12/01 02:35:22;;;;;;;0.90;0.40;;;;;;;6.12;100.00;99434.59;5026909;28;20052;-78
2022/12/01 02:38:03;;;;;;;2.75;0.60;;;;;;;6.13;100.00;99428.63;5029732;28;20510;-79
2022/12/01 02:40:38;;;;;;;1.02;0.63;;;;;;;6.16;100.00;99426.13;5026939;28;20080;-78
2022/12/01 02:43:13;;;;;;;0.35;0.32;;;;;;;6.18;100.00;99427.03;5028003;28;20128;-77
2022/12/01 02:45:48;;;;;;;1.63;0.85;;;;;;;6.19;100.00;99423.66;5026225;28;20159;-77
2022/12/01 02:48:25;;;;;;;3.90;0.70;;;;;;;6.19;100.00;99431.38;5029033;28;21211;-78
2022/12/01 02:50:56;;;;;;;0.63;0.50;;;;;;;6.20;100.00;99430.53;5019945;28;20048;-76
2022/12/01 02:53:25;;;;;;;2.22;0.80;;;;;;;6.22;100.00;99418.59;5018577;28;20468;-75
2022/12/01 02:55:56;;;;;;;0.95;0.60;;;;;;;6.20;100.00;99420.25;5020219;28;20127;-74
2022/12/01 02:58:25;;;;;;;4.80;0.60;;;;;;;6.19;100.00;99421.09;5028071;28;20333;-76
2022/12/01 03:01:16;;;;;;;2.50;0.68;;;;;;;6.20;100.00;99425.38;5021837;28;20045;-76
2022/12/01 03:04:10;;;;;;;1.15;0.50;;;;;;;6.18;100.00;99422.75;5027030;28;20045;-75
2022/12/01 03:06:48;;;;;;;2.10;0.40;;;;;;;6.12;100.00;99420.06;5022238;28;20088;-76
2022/12/01 03:09:29;;;;;;;0.75;0.52;;;;;;;6.12;100.00;99416.63;5021453;28;20057;-74
2022/12/01 03:12:08;;;;;;;1.95;0.50;;;;;;;6.07;100.00;99412.25;5022158;28;20132;-75
2022/12/01 03:14:45;;;;;;;3.88;0.50;;;;;;;6.08;100.00;99407.97;5022059;28;20053;-75
2022/12/01 03:17:19;;;;;;;3.20;0.65;;;;;;;6.06;100.00;99405.34;5026612;28;20634;-78
2022/12/01 03:19:53;;;;;;;3.13;0.30;;;;;;;6.04;100.00;99408.72;5015265;28;20136;-77
2022/12/01 03:22:27;;;;;;;1.55;0.47;;;;;;;6.04;100.00;99413.84;5021717;28;20573;-77
2022/12/01 03:24:58;;;;;;;2.65;0.60;;;;;;;5.99;100.00;99408.59;5023464;28;20764;-77
2022/12/01 03:27:30;;;;;;;2.80;0.40;;;;;;;5.99;100.00;99415.44;5020126;28;20046;-75
2022/12/01 03:30:01;;;;;;;0.90;0.55;;;;;;;5.98;100.00;99412.00;5021216;28;20510;-72
2022/12/01 03:32:34;;;;;;;2.42;0.50;;;;;;;6.00;100.00;99423.19;5025022;28;20045;-74
2022/12/01 03:35:09;;;;;;;2.25;0.43;;;;;;;6.00;100.00;99427.44;5025737;28;20413;-75
2022/12/01 03:37:43;;;;;;;2.88;0.73;;;;;;;6.01;100.00;99424.91;5019802;28;20049;-74
2022/12/01 03:40:18;;;;;;;2.15;0.40;;;;;;;6.03;100.00;99428.38;5023166;28;20038;-75
2022/12/01 03:42:54;;;;;;;1.13;0.40;;;;;;;6.03;100.00;99433.53;5022082;28;20399;-74
2022/12/01 03:45:29;;;;;;;0.22;0.22;;;;;;;6.08;100.00;99442.22;5022248;28;20614;-73
2022/12/01 03:47:58;;;;;;;0.90;0.50;;;;;;;6.05;100.00;99437.00;5022391;28;20041;-72
2022/12/01 03:50:38;;;;;;;1.30;0.77;;;;;;;6.04;100.00;99435.25;5023334;28;20491;-72
2022/12/01 03:53:12;;;;;;;1.00;0.50;;;;;;;6.05;100.00;99437.00;5028889;28;20045;-74
2022/12/01 03:55:44;;;;;;;1.40;0.55;;;;;;;6.02;100.00;99441.19;5027351;28;20084;-71
2022/12/01 03:58:17;;;;;;;0.37;0.37;;;;;;;5.99;100.00;99441.97;5025775;28;20084;-72
2022/12/01 04:00:52;;;;;;;2.15;0.85;;;;;;;5.97;100.00;99437.63;5022056;28;20713;-72
2022/12/01 04:03:24;;;;;;;3.35;0.65;;;;;;;5.93;100.00;99436.63;5027421;28;20095;-72
2022/12/01 04:05:54;;;;;;;;;;;;;;;5.90;100.00;99440.81;5027681;28;20132;-71
2022/12/01 04:08:23;;;;;;;0.60;0.50;;;;;;;5.88;100.00;99448.47;5025620;28;20457;-74
2022/12/01 04:10:52;;;;;;;1.92;0.63;;;;;;;5.83;100.00;99444.91;5022722;28;20557;-72
2022/12/01 04:13:22;;;;;;;0.75;0.45;;;;;;;5.78;100.00;99443.94;5022496;28;20499;-74
2022/12/01 04:15:51;;;;;;;0.55;0.55;;;;;;;5.78;100.00;99443.94;5026336;28;20500;-72
2022/12/01 04:18:20;;;;;;;0.95;0.80;;;;;;;5.78;100.00;99449.06;5025359;28;20041;-72
2022/12/01 04:20:50;;;;;;;2.03;0.57;;;;;;;5.79;100.00;99443.09;5025682;28;20458;-72
2022/12/01 04:26:04;;;;;;;0.30;0.30;;;;;;;5.86;100.00;99455.25;5011629;28;20128;-74
2022/12/01 04:28:33;;;;;;;0.43;0.20;;;;;;;5.85;100.00;99453.53;5015793;28;20613;-73
2022/12/01 04:31:02;;;;;;;3.00;0.40;;;;;;;5.91;100.00;99461.41;5026547;28;20406;-74
2022/12/01 04:33:31;;;;;;;1.55;0.70;;;;;;;5.94;100.00;99458.97;5024325;28;20056;-74
2022/12/01 04:36:00;;;;;;;0.28;0.22;;;;;;;5.96;100.00;99457.31;5018857;28;20049;-73
2022/12/01 04:38:31;;;;;;;0.82;0.45;;;;;;;5.99;100.00;99462.50;5016886;28;20053;-74
2022/12/01 04:41:00;;;;;;;0.38;0.20;;;;;;;6.02;100.00;99457.44;5020135;28;20412;-73
2022/12/01 04:43:29;;;;;;;0.85;0.38;;;;;;;6.04;100.00;99460.94;5024346;28;20095;-75
2022/12/01 04:45:58;;;;;;;0.70;0.40;;;;;;;6.06;100.00;99456.72;5017624;28;20069;-71
2022/12/01 04:48:27;;;;;;;0.40;0.30;;;;;;;6.05;100.00;99457.56;5012231;28;20060;-72
2022/12/01 04:50:55;;;;;;;6.93;0.63;;;;;;;6.03;100.00;99445.50;5011528;28;20143;-73
2022/12/01 04:53:24;;;;;;;0.35;0.20;;;;;;;6.00;100.00;99443.72;5004714;28;20046;-74
2022/12/01 04:55:54;;;;;;;0.10;0.10;;;;;;;5.91;100.00;99448.59;5000480;28;20042;-72
2022/12/01 04:58:23;;;;;;;1.23;0.40;;;;;;;5.80;100.00;99434.59;5006133;28;20484;-72
2022/12/01 05:00:52;;;;;;;0.82;0.32;;;;;;;5.75;100.00;99431.00;5004836;28;20054;-72
2022/12/01 05:03:21;;;;;;;0.52;0.52;;;;;;;5.61;100.00;99422.91;5006842;28;20523;-74
2022/12/01 05:05:50;;;;;;;1.10;0.30;;;;;;;5.65;100.00;99441.00;5004697;28;20133;-73
2022/12/01 05:08:18;;;;;;;0.60;0.30;;;;;;;5.62;100.00;99446.06;5001703;28;20492;-74
2022/12/01 05:10:47;;;;;;;1.77;0.80;;;;;;;5.62;100.00;99450.34;5008069;28;20070;-76
2022/12/01 05:13:18;;;;;;;6.35;2.38;;;;;;;5.60;100.00;99442.56;4999649;28;20403;-76
2022/12/01 05:15:47;;;;;;;6.43;2.55;;;;;;;5.57;100.00;99423.69;5009054;28;20042;-75
2022/12/01 05:18:16;;;;;;;25.70;10.15;;;;;;;5.60;100.00;99422.06;5001229;28;20070;-75
2022/12/01 05:20:58;;;;;;;20.77;8.75;;;;;;;5.62;100.00;99425.53;5006080;28;20046;-74
2022/12/01 05:23:28;;;;;;;4.95;0.38;;;;;;;5.64;100.00;99429.00;5004784;28;20073;-73
2022/12/01 05:25:57;;;;;;;6.53;2.88;;;;;;;5.69;100.00;99428.28;5008994;28;20034;-73
2022/12/01 05:28:28;;;;;;;6.53;1.63;;;;;;;5.72;100.00;99428.34;4998213;28;20045;-74
2022/12/01 05:30:57;;;;;;;1.27;0.40;;;;;;;5.74;100.00;99434.41;5009293;28;20084;-73
2022/12/01 05:33:26;;;;;;;67.63;23.27;;;;;;;5.76;100.00;99441.31;5005850;28;20089;-74
2022/12/01 05:35:55;;;;;;;3.13;1.08;;;;;;;5.75;100.00;99439.59;5008142;28;20053;-72
2022/12/01 05:38:27;;;;;;;1.08;0.65;;;;;;;5.75;100.00;99431.00;5006572;28;20053;-73
2022/12/01 05:40:56;;;;;;;0.40;0.40;;;;;;;5.75;100.00;99436.13;5005387;28;20260;-73
2022/12/01 05:43:27;;;;;;;0.68;0.50;;;;;;;5.75;100.00;99446.41;5006966;28;20156;-73
2022/12/01 05:45:56;;;;;;;0.80;0.47;;;;;;;5.69;100.00;99456.50;5007162;28;20048;-72
2022/12/01 05:48:25;;;;;;;2.88;0.60;;;;;;;5.67;100.00;99462.44;5025318;28;20054;-73
2022/12/01 05:50:53;;;;;;;1.38;0.57;;;;;;;5.66;100.00;99462.44;5024778;28;20048;-72
2022/12/01 05:53:22;;;;;;;2.38;0.32;;;;;;;5.64;100.00;99462.38;5026940;28;20055;-73
2022/12/01 05:55:53;;;;;;;0.70;0.28;;;;;;;5.67;100.00;99457.31;5027113;28;20045;-74
2022/12/01 05:58:22;;;;;;;0.40;0.30;;;;;;;5.70;100.00;99453.97;5028138;28;20108;-74
2022/12/01 06:00:53;;;;;;;1.55;0.20;;;;;;;5.74;100.00;99449.81;5024214;28;20349;-75
2022/12/01 06:03:21;;;;;;;0.20;0.20;;;;;;;5.74;100.00;99453.22;5026393;28;20553;-75
2022/12/01 06:05:50;;;;;;;0.30;0.20;;;;;;;5.73;100.00;99458.34;5017203;28;20093;-74
2022/12/01 06:08:19;;;;;;;2.72;0.60;;;;;;;5.69;100.00;99451.38;5027033;28;20049;-74
2022/12/01 06:10:48;;;;;;;0.90;0.20;;;;;;;5.64;100.00;99459.81;5024902;28;20056;-75
2022/12/01 06:13:17;;;;;;;0.52;0.28;;;;;;;5.66;100.00;99463.28;5024501;28;20045;-74
2022/12/01 06:15:45;;;;;;;0.30;0.20;;;;;;;5.65;100.00;99461.53;5026233;28;20049;-73
2022/12/01 06:18:16;;;;;;;0.52;0.20;;;;;;;5.61;100.00;99454.59;5026951;28;20527;-73
2022/12/01 06:20:45;;;;;;;0.75;0.20;;;;;;;5.58;100.00;99458.75;5027646;28;20096;-73
2022/12/01 06:23:14;;;;;;;0.77;0.17;;;;;;;5.55;100.00;99458.69;5029067;28;20049;-72
2022/12/01 06:25:42;;;;;;;0.10;0.10;;;;;;;5.50;100.00;99455.09;5029095;28;20506;-71
2022/12/01 06:28:11;;;;;;;0.98;0.17;;;;;;;5.50;100.00;99453.44;5015104;28;20412;-71
2022/12/01 06:30:40;;;;;;;0.65;0.32;;;;;;;5.51;100.00;99452.59;5024755;28;20488;-72
2022/12/01 06:33:09;;;;;;;0.20;0.20;;;;;;;5.53;100.00;99450.94;5021623;28;20081;-72
2022/12/01 06:35:40;;;;;;;1.45;0.20;;;;;;;5.56;100.00;99452.72;5020406;28;20498;-74
2022/12/01 06:38:09;;;;;;;0.20;0.20;;;;;;;5.57;100.00;99457.03;5027819;28;20049;-76
2022/12/01 06:40:37;;;;;;;0.10;0.05;;;;;;;5.54;100.00;99460.34;5021433;28;20069;-76
2022/12/01 06:43:06;;;;;;;0.22;0.20;;;;;;;5.54;100.00;99457.78;5023668;28;20045;-76
2022/12/01 06:45:35;;;;;;;0.47;0.30;;;;;;;5.54;100.00;99462.06;5028679;28;20081;-74
2022/12/01 06:48:04;;;;;;;0.10;0.10;;;;;;;5.53;100.00;99457.78;5027342;28;20285;-75
2022/12/01 06:50:32;;;;;;;0.85;0.30;;;;;;;5.55;100.00;99463.81;5023121;28;20053;-75
2022/12/01 06:53:03;;;;;;;0.25;0.20;;;;;;;5.52;100.00;99459.47;5020655;28;20076;-75
2022/12/01 06:55:32;;;;;;;5.57;1.00;;;;;;;5.42;100.00;99466.00;5021861;28;20211;-75
2022/12/01 06:58:01;;;;;;;1.10;0.38;;;;;;;5.38;100.00;99460.75;5023135;28;20572;-76
2022/12/01 07:00:30;;;;;;;1.80;0.57;;;;;;;5.26;100.00;99445.88;5028289;28;20052;-76
2022/12/01 07:02:59;;;;;;;0.73;0.20;;;;;;;5.21;100.00;99453.41;5026976;28;20046;-76
2022/12/01 07:05:28;;;;;;;0.43;0.30;;;;;;;5.19;100.00;99449.94;5021566;28;20410;-77
2022/12/01 07:07:57;;;;;;;1.30;0.30;;;;;;;5.10;100.00;99444.53;5022162;28;20438;-75
2022/12/01 07:10:28;;;;;;;0.22;0.13;;;;;;;5.01;100.00;99444.25;5022509;28;20045;-76
2022/12/01 07:12:57;;;;;;;1.45;0.47;;;;;;;4.97;100.00;99437.28;5023138;28;20072;-77
2022/12/01 07:15:27;;;;;;;0.32;0.22;;;;;;;4.84;100.00;99441.19;5019653;28;20083;-74
2022/12/01 07:17:56;;;;;;;0.05;0.05;;;;;;;4.79;100.00;99438.47;5027537;28;20076;-76
2022/12/01 07:20:24;;;;;;;0.20;0.20;;;;;;;4.79;100.00;99435.91;5026773;28;20128;-76
2022/12/01 07:22:55;;;;;;;0.45;0.10;;;;;;;4.73;100.00;99435.72;5026888;28;20093;-76
2022/12/01 07:25:24;;;;;;;0.03;0.00;;;;;;;4.59;100.00;99435.28;5023972;28;20045;-77
2022/12/01 07:27:54;;;;;;;0.00;0.00;;;;;;;4.61;100.00;99454.13;5024863;28;20720;-76
2022/12/01 07:30:23;;;;;;;0.20;0.20;;;;;;;4.60;100.00;99451.50;5026415;28;20041;-76
2022/12/01 07:32:51;;;;;;;0.28;0.28;;;;;;;4.60;100.00;99459.19;5026644;28;20059;-76
2022/12/01 07:35:21;;;;;;;0.17;0.10;;;;;;;4.62;100.00;99475.50;5025739;28;20045;-77
2022/12/01 07:37:55;;;;;;;0.10;0.00;;;;;;;4.62;100.00;99470.38;5022837;28;20410;-75
2022/12/01 07:40:24;;;;;;;0.00;0.00;;;;;;;4.67;100.00;99484.19;5023680;28;20045;-75
2022/12/01 07:42:55;;;;;;;0.00;0.00;;;;;;;4.67;100.00;99479.06;5019443;28;20454;-75
2022/12/01 07:45:23;;;;;;;0.00;0.00;;;;;;;4.70;100.00;99486.88;5022074;28;20060;-76
2022/12/01 07:47:54;;;;;;;0.00;0.00;;;;;;;4.71;100.00;99480.91;5029117;28;20056;-76
2022/12/01 07:50:22;;;;;;;0.38;0.10;;;;;;;4.70;100.00;99480.88;5024241;28;20104;-76
2022/12/01 07:52:51;;;;;;;0.10;0.00;;;;;;;4.69;100.00;99480.00;5018428;28;20148;-75
2022/12/01 07:55:20;;;;;;;0.00;0.00;;;;;;;4.64;100.00;99472.97;5027763;28;20257;-76
2022/12/01 07:57:49;;;;;;;2.38;0.20;;;;;;;4.61;100.00;99476.31;5028069;28;20042;-76
2022/12/01 08:00:26;;;;;;;0.00;0.00;;;;;;;4.63;100.00;99482.38;5022443;28;20067;-74
2022/12/01 08:02:55;;;;;;;1.05;0.20;;;;;;;4.66;100.00;99481.59;5022417;28;20041;-75
2022/12/01 08:05:23;;;;;;;0.40;0.22;;;;;;;4.68;100.00;99490.22;5023535;28;20132;-76
2022/12/01 08:07:54;;;;;;;0.85;0.25;;;;;;;4.73;100.00;99506.59;5019009;28;20498;-76
2022/12/01 08:10:23;;;;;;;0.15;0.15;;;;;;;4.77;100.00;99514.44;5016935;28;20129;-75
2022/12/01 08:12:52;;;;;;;0.20;0.20;;;;;;;4.79;100.00;99511.94;5019321;28;20047;-75
2022/12/01 08:15:20;;;;;;;0.52;0.10;;;;;;;4.83;100.00;99516.31;5017927;28;20042;-75
2022/12/01 08:17:51;;;;;;;0.40;0.30;;;;;;;4.87;100.00;99513.03;5024535;28;20062;-74
2022/12/01 08:20:20;;;;;;;0.30;0.10;;;;;;;4.90;100.00;99522.50;5027082;28;20454;-74
2022/12/01 08:22:49;;;;;;;0.20;0.10;;;;;;;4.88;100.00;99519.03;5027513;28;20103;-75
2022/12/01 08:25:18;;;;;;;1.55;0.30;;;;;;;4.83;100.00;99524.91;5026594;28;20418;-77
2022/12/01 08:27:46;;;;;;;0.10;0.10;;;;;;;4.81;100.00;99518.84;5011645;28;20060;-75
2022/12/01 08:30:15;;;;;;;0.38;0.10;;;;;;;4.76;100.00;99522.91;5036480;28;20049;-74
2022/12/01 08:32:44;;;;;;;0.30;0.20;;;;;;;4.74;100.00;99522.03;5020063;28;20173;-74
2022/12/01 08:35:15;;;;;;;0.47;0.20;;;;;;;4.72;100.00;99533.03;5025148;28;20495;-75
2022/12/01 08:37:44;;;;;;;0.00;0.00;;;;;;;4.63;100.00;99533.63;5019154;28;20049;-75
2022/12/01 08:40:14;;;;;;;0.75;0.30;;;;;;;4.53;100.00;99526.41;5022644;28;20056;-75
2022/12/01 08:42:42;;;;;;;1.00;0.20;;;;;;;4.49;100.00;99545.94;5028109;28;20499;-75
2022/12/01 08:45:12;;;;;;;0.20;0.20;;;;;;;4.45;100.00;99533.84;5027092;28;20050;-76
2022/12/01 08:47:41;;;;;;;0.30;0.30;;;;;;;4.39;100.00;99534.50;5028363;28;20189;-75
2022/12/01 08:50:11;;;;;;;0.30;0.30;;;;;;;4.33;100.00;99544.56;5026063;28;20414;-74
2022/12/01 08:52:42;;;;;;;1.90;0.35;;;;;;;4.29;100.00;99542.69;5020061;28;20111;-75
2022/12/01 08:55:11;;;;;;;0.30;0.20;;;;;;;4.28;100.00;99546.06;5023453;28;20058;-74
2022/12/01 08:57:39;;;;;;;0.50;0.30;;;;;;;4.26;100.00;99547.72;5028480;28;20050;-75
2022/12/01 09:00:09;;;;;;;1.10;0.30;;;;;;;4.24;100.00;99554.47;5031291;28;20053;-75
2022/12/01 09:02:38;;;;;;;0.93;0.40;;;;;;;4.25;100.00;99543.41;5026741;28;20137;-75
2022/12/01 09:05:07;;;;;;;0.30;0.30;;;;;;;4.25;100.00;99548.50;5023347;28;20455;-75
2022/12/01 09:07:36;;;;;;;0.77;0.75;;;;;;;4.24;100.00;99551.91;5021116;28;20505;-75
2022/12/01 09:10:07;;;;;;;0.80;0.52;;;;;;;4.26;100.00;99550.28;5027434;28;20505;-75
2022/12/01 09:12:36;;;;;;;0.43;0.38;;;;;;;4.22;100.00;99556.09;5027182;28;20045;-75
2022/12/01 09:15:05;;;;;;;0.60;0.60;;;;;;;4.23;100.00;99556.97;5023998;28;20053;-76
2022/12/01 09:17:34;;;;;;;0.63;0.50;;;;;;;4.24;100.00;99564.72;5025327;28;20231;-74
2022/12/01 09:20:10;;;;;;;0.85;0.38;;;;;;;4.25;100.00;99561.31;5029665;28;20049;-74
2022/12/01 09:22:39;;;;;;;0.68;0.40;;;;;;;4.24;100.00;99559.59;5025777;28;20141;-75
2022/12/01 09:25:13;;;;;;;1.15;0.20;;;;;;;4.24;100.00;99564.72;5029467;28;20053;-74
2022/12/01 09:27:42;;;;;;;1.48;0.30;;;;;;;4.26;100.00;99568.19;5029690;28;20056;-74
2022/12/01 09:30:11;;;;;;;1.10;0.40;;;;;;;4.26;100.00;99572.44;5022749;28;20052;-75
2022/12/01 09:32:40;;;;;;;0.60;0.30;;;;;;;4.26;100.00;99569.88;5023602;28;20439;-75
2022/12/01 09:35:09;;;;;;;1.05;0.80;;;;;;;4.25;100.00;99586.06;5026073;28;20439;-75
2022/12/01 09:37:38;;;;;;;0.45;0.25;;;;;;;4.26;100.00;99592.91;5031233;28;20080;-76
2022/12/01 09:40:15;;;;;;;0.50;0.50;;;;;;;4.28;100.00;99593.84;5026546;28;20049;-75
2022/12/01 09:42:46;;;;;;;1.13;0.35;;;;;;;4.29;100.00;99603.28;5021742;28;20135;-76
2022/12/01 09:45:26;;;;;;;0.20;0.20;;;;;;;4.29;100.00;99599.03;5028797;28;20050;-75
2022/12/01 09:47:57;;;;;;;0.82;0.82;;;;;;;4.29;100.00;99599.03;5030523;28;20018;-76
2022/12/01 09:50:28;;;;;;;0.95;0.32;;;;;;;4.29;100.00;99599.03;5030810;28;20491;-75
2022/12/01 09:53:01;;;;;;;0.80;0.40;;;;;;;4.28;100.00;99602.38;5023747;28;20490;-75
2022/12/01 09:55:32;;;;;;;;;;;;;;;4.25;100.00;99599.72;5030451;28;20487;-78
2022/12/01 09:58:04;;;;;;;0.22;0.20;;;;;;;4.25;100.00;99606.53;5027486;28;19925;-76
2022/12/01 10:00:36;;;;;;;1.00;0.28;;;;;;;4.18;100.00;99590.09;5031337;28;20403;-77
2022/12/01 10:03:16;;;;;;;0.63;0.55;;;;;;;4.26;100.00;99609.16;5030714;28;20411;-76
2022/12/01 10:05:49;;;;;;;1.30;0.38;;;;;;;4.27;100.00;99605.78;5024332;28;20069;-77
2022/12/01 10:08:22;;;;;;;0.77;0.50;;;;;;;4.27;100.00;99599.78;5025036;28;20053;-77
2022/12/01 10:10:57;;;;;;;0.43;0.32;;;;;;;4.29;100.00;99608.41;5040300;28;20711;-76
2022/12/01 10:13:28;;;;;;;0.75;0.30;;;;;;;4.31;100.00;99612.75;5030066;28;20513;-77
2022/12/01 10:16:10;;;;;;;0.38;0.22;;;;;;;4.33;100.00;99615.34;5024918;28;20129;-77
2022/12/01 10:18:53;;;;;;;0.47;0.35;;;;;;;4.33;100.00;99615.34;5022479;28;20392;-76
2022/12/01 10:21:28;;;;;;;;;;;;;;;4.34;100.00;99623.09;5030209;28;20045;-76
2022/12/01 10:24:11;;;;;;;1.42;0.40;;;;;;;4.35;100.00;99627.44;5030993;28;19920;-77
2022/12/01 10:26:51;;;;;;;0.55;0.40;;;;;;;4.36;100.00;99628.28;5026720;28;20462;-76
2022/12/01 10:29:29;;;;;;;0.38;0.30;;;;;;;4.37;100.00;99625.75;5015002;28;20049;-77
2022/12/01 10:31:58;;;;;;;0.60;0.52;;;;;;;4.36;100.00;99625.72;5029308;28;20484;-77
2022/12/01 10:34:29;;;;;;;2.22;0.90;;;;;;;4.37;100.00;99628.31;5030233;28;20145;-77
2022/12/01 10:36:59;;;;;;;0.55;0.55;;;;;;;4.37;100.00;99630.03;5020130;28;20042;-76
2022/12/01 10:39:31;;;;;;;1.92;0.30;;;;;;;4.33;100.00;99621.38;5030801;28;20140;-77
2022/12/01 10:42:06;;;;;;;0.20;0.20;;;;;;;4.28;100.00;99615.19;5014790;28;20049;-77
2022/12/01 10:44:36;;;;;;;0.40;0.38;;;;;;;4.23;100.00;99624.41;5029697;28;20045;-76
2022/12/01 10:47:09;;;;;;;0.63;0.50;;;;;;;4.21;100.00;99620.91;5028380;28;20057;-78
2022/12/01 10:49:40;;;;;;;0.45;0.32;;;;;;;4.21;100.00;99620.91;5031966;28;20052;-77
2022/12/01 10:52:28;;;;;;;0.38;0.38;;;;;;;4.17;100.00;99611.41;5025332;28;20049;-77
2022/12/01 10:54:56;;;;;;;0.65;0.10;;;;;;;4.15;100.00;99601.09;5020364;28;20057;-77
2022/12/01 10:57:28;;;;;;;0.50;0.40;;;;;;;4.13;100.00;99601.84;5024551;28;20064;-78
2022/12/01 11:00:00;;;;;;;1.23;0.85;;;;;;;4.15;100.00;99607.91;5027863;28;20490;-77
2022/12/01 11:02:31;;;;;;;0.30;0.28;;;;;;;4.17;100.00;99608.84;5026491;28;20088;-76
2022/12/01 11:05:02;;;;;;;0.68;0.40;;;;;;;4.18;100.00;99610.56;5030198;28;20127;-77
2022/12/01 11:07:35;;;;;;;0.20;0.20;;;;;;;4.20;100.00;99616.63;5027446;28;20046;-77
2022/12/01 11:10:17;;;;;;;0.15;0.15;;;;;;;4.20;100.00;99619.19;5026093;28;20057;-76
2022/12/01 11:12:55;;;;;;;0.38;0.28;;;;;;;4.12;100.00;99621.47;5023133;28;20300;-77
2022/12/01 11:15:26;;;;;;;0.30;0.20;;;;;;;4.06;100.00;99620.38;5029359;28;20045;-77
2022/12/01 11:18:00;;;;;;;5.43;0.35;;;;;;;3.99;100.00;99632.06;5023444;28;20045;-76
2022/12/01 11:20:34;;;;;;;0.30;0.30;;;;;;;3.94;100.00;99625.88;5030622;28;20103;-76
2022/12/01 11:23:28;;;;;;;0.50;0.20;;;;;;;3.94;100.00;99637.00;5030462;28;20059;-76
2022/12/01 11:26:00;;;;;;;0.50;0.20;;;;;;;3.92;100.00;99636.06;5030992;28;20045;-76
2022/12/01 11:28:32;;;;;;;0.28;0.20;;;;;;;3.92;100.00;99636.06;5028907;28;20623;-77
2022/12/01 11:31:04;;;;;;;0.47;0.30;;;;;;;3.93;100.00;99630.13;5031280;28;20111;-76
2022/12/01 11:33:40;;;;;;;0.38;0.32;;;;;;;3.93;100.00;99629.25;5027390;28;20056;-77
2022/12/01 11:36:10;;;;;;;0.43;0.35;;;;;;;3.97;100.00;99632.00;5030611;28;20403;-77
2022/12/01 11:38:38;;;;;;;0.20;0.20;;;;;;;3.99;100.00;99625.25;5027850;28;20041;-77
2022/12/01 11:41:22;;;;;;;0.20;0.17;;;;;;;3.98;100.00;99630.28;5030564;28;20050;-77
2022/12/01 11:43:53;;;;;;;0.20;0.20;;;;;;;3.98;100.00;99638.84;5029109;28;20045;-76
2022/12/01 11:46:32;;;;;;;2.50;0.50;;;;;;;3.97;100.00;99632.00;5030373;28;20059;-76
2022/12/01 11:49:02;;;;;;;1.98;0.20;;;;;;;3.97;100.00;99632.00;5028685;28;20107;-76
2022/12/01 11:51:36;;;;;;;0.32;0.32;;;;;;;3.99;100.00;99632.94;5014743;28;20053;-77
2022/12/01 11:54:20;;;;;;;0.35;0.30;;;;;;;4.04;100.00;99632.22;5017216;28;20050;-76
2022/12/01 11:56:49;;;;;;;0.68;0.28;;;;;;;4.06;100.00;99639.16;5024017;28;20049;-76
2022/12/01 11:59:23;;;;;;;1.90;0.38;;;;;;;4.08;100.00;99640.09;5020893;28;20054;-76
2022/12/01 12:02:14;;;;;;;0.70;0.17;;;;;;;4.07;100.00;99642.56;5015821;28;20046;-76